YMML

Melbourne International Airport

Melbourne, Australia
TAF YMML 221121Z 2212/2318 22006KT 9999 SCT040 FM221800 18012KT 9999 -SHRA SCT010 BKN020 FM230000 18015G25KT 9999 BKN040 FM230800 18010KT 9999 SCT035 INTER 2217/2224 4000 SHRA BKN015 TEMPO 2218/2220 4000 SHRA BKN008
Issued Valid From Valid To
Sep-22 @ 11:21 UTC
(4 hours ago)
Sep-22 @ 12:00 UTC
(3 hours ago)
Sep-23 @ 18:00 UTC
(-1 days ago)
to
to
to
to
to
to
TAF YMML 221121Z 2212/2318 22006KT 9999 SCT040 FM221800 18012KT 9999 -SHRA SCT010 BKN020 FM230000 18015G25KT 9999 BKN040 FM230800 18010KT 9999 SCT035 INTER 2217/2224 4000 SHRA BKN015 TEMPO 2218/2220 4000 SHRA BKN008
Issued Sep-22 @ 11:21 UTC
(4 hours ago)
Valid From Sep-22 @ 12:00 UTC
(3 hours ago)
Valid To Sep-23 @ 18:00 UTC
(-1 days ago)
-
-
-
-
-
-